sensor_id;sensor_type;location;lat;lon;timestamp;P1;durP1;ratioP1;P2;durP2;ratioP2
41887;SDS011;63122;52.424;13.458;2024-02-14T01:06:41;10.63;;;5.80;;
41887;SDS011;63122;52.424;13.458;2024-02-14T01:08:42;15.13;;;5.50;;
41887;SDS011;63122;52.424;13.458;2024-02-14T01:10:56;9.43;;;5.97;;
41887;SDS011;63122;52.424;13.458;2024-02-14T01:13:07;9.70;;;5.77;;
41887;SDS011;63122;52.424;13.458;2024-02-14T01:15:08;11.57;;;5.33;;
41887;SDS011;63122;52.424;13.458;2024-02-14T01:17:29;14.90;;;5.67;;
41887;SDS011;63122;52.424;13.458;2024-02-14T01:19:25;11.70;;;5.80;;
41887;SDS011;63122;52.424;13.458;2024-02-14T01:21:21;11.73;;;5.90;;
41887;SDS011;63122;52.424;13.458;2024-02-14T01:23:19;8.10;;;5.20;;
41887;SDS011;63122;52.424;13.458;2024-02-14T01:25:17;10.07;;;5.83;;
41887;SDS011;63122;52.424;13.458;2024-02-14T01:27:13;11.50;;;5.53;;
41887;SDS011;63122;52.424;13.458;2024-02-14T01:29:11;8.80;;;5.23;;
41887;SDS011;63122;52.424;13.458;2024-02-14T01:31:04;8.67;;;4.80;;
41887;SDS011;63122;52.424;13.458;2024-02-14T01:33:00;11.90;;;5.47;;
41887;SDS011;63122;52.424;13.458;2024-02-14T01:34:56;13.77;;;5.63;;
41887;SDS011;63122;52.424;13.458;2024-02-14T01:36:54;11.60;;;6.07;;
41887;SDS011;63122;52.424;13.458;2024-02-14T01:38:53;10.20;;;5.37;;
41887;SDS011;63122;52.424;13.458;2024-02-14T01:40:50;10.47;;;6.07;;
41887;SDS011;63122;52.424;13.458;2024-02-14T01:42:44;10.57;;;5.50;;
41887;SDS011;63122;52.424;13.458;2024-02-14T01:44:40;11.07;;;5.73;;
41887;SDS011;63122;52.424;13.458;2024-02-14T01:46:36;12.17;;;5.57;;
41887;SDS011;63122;52.424;13.458;2024-02-14T01:48:31;11.87;;;5.67;;
41887;SDS011;63122;52.424;13.458;2024-02-14T01:50:26;12.50;;;5.70;;
41887;SDS011;63122;52.424;13.458;2024-02-14T01:52:24;9.70;;;5.13;;
41887;SDS011;63122;52.424;13.458;2024-02-14T01:54:23;12.87;;;5.50;;
41887;SDS011;63122;52.424;13.458;2024-02-14T01:56:21;8.07;;;5.10;;
41887;SDS011;63122;52.424;13.458;2024-02-14T01:58:21;8.60;;;5.70;;
41887;SDS011;63122;52.424;13.458;2024-02-14T02:00:18;8.13;;;5.37;;
41887;SDS011;63122;52.424;13.458;2024-02-14T02:02:15;10.23;;;5.50;;
41887;SDS011;63122;52.424;13.458;2024-02-14T02:04:11;9.03;;;5.47;;
41887;SDS011;63122;52.424;13.458;2024-02-14T02:06:07;9.37;;;5.50;;
41887;SDS011;63122;52.424;13.458;2024-02-14T02:08:04;11.70;;;6.10;;
41887;SDS011;63122;52.424;13.458;2024-02-14T02:10:05;13.00;;;6.77;;
41887;SDS011;63122;52.424;13.458;2024-02-14T02:11:59;10.73;;;5.77;;
41887;SDS011;63122;52.424;13.458;2024-02-14T02:13:58;8.77;;;5.80;;
41887;SDS011;63122;52.424;13.458;2024-02-14T02:15:56;9.37;;;5.57;;
41887;SDS011;63122;52.424;13.458;2024-02-14T02:17:53;8.87;;;5.03;;
41887;SDS011;63122;52.424;13.458;2024-02-14T02:19:48;9.10;;;5.60;;
41887;SDS011;63122;52.424;13.458;2024-02-14T02:21:45;9.77;;;5.97;;
41887;SDS011;63122;52.424;13.458;2024-02-14T02:23:41;7.83;;;5.10;;
41887;SDS011;63122;52.424;13.458;2024-02-14T02:25:38;10.47;;;5.00;;
41887;SDS011;63122;52.424;13.458;2024-02-14T02:27:31;11.77;;;5.30;;
41887;SDS011;63122;52.424;13.458;2024-02-14T02:29:28;7.47;;;4.80;;
41887;SDS011;63122;52.424;13.458;2024-02-14T02:31:25;7.13;;;4.73;;
41887;SDS011;63122;52.424;13.458;2024-02-14T02:33:20;9.67;;;5.67;;
41887;SDS011;63122;52.424;13.458;2024-02-14T02:35:16;6.83;;;4.77;;
41887;SDS011;63122;52.424;13.458;2024-02-14T02:37:12;9.43;;;5.27;;
41887;SDS011;63122;52.424;13.458;2024-02-14T02:39:11;10.90;;;5.33;;
41887;SDS011;63122;52.424;13.458;2024-02-14T02:41:06;7.80;;;5.23;;
41887;SDS011;63122;52.424;13.458;2024-02-14T02:43:02;7.57;;;4.93;;
41887;SDS011;63122;52.424;13.458;2024-02-14T02:44:58;9.23;;;5.00;;
41887;SDS011;63122;52.424;13.458;2024-02-14T02:46:50;10.87;;;5.23;;
41887;SDS011;63122;52.424;13.458;2024-02-14T02:48:46;9.60;;;4.80;;
41887;SDS011;63122;52.424;13.458;2024-02-14T02:50:39;10.87;;;5.40;;
41887;SDS011;63122;52.424;13.458;2024-02-14T02:52:37;10.03;;;5.07;;
41887;SDS011;63122;52.424;13.458;2024-02-14T02:54:36;8.50;;;5.80;;
41887;SDS011;63122;52.424;13.458;2024-02-14T02:56:33;9.73;;;5.13;;
41887;SDS011;63122;52.424;13.458;2024-02-14T02:58:28;9.90;;;6.23;;
41887;SDS011;63122;52.424;13.458;2024-02-14T03:54:43;12.13;;;7.23;;
41887;SDS011;63122;52.424;13.458;2024-02-14T03:57:56;16.07;;;7.63;;
41887;SDS011;63122;52.424;13.458;2024-02-14T04:00:24;15.30;;;6.80;;
41887;SDS011;63122;52.424;13.458;2024-02-14T04:02:48;11.50;;;7.13;;
41887;SDS011;63122;52.424;13.458;2024-02-14T04:04:51;12.43;;;7.57;;
41887;SDS011;63122;52.424;13.458;2024-02-14T04:06:46;14.10;;;7.17;;
41887;SDS011;63122;52.424;13.458;2024-02-14T04:08:42;11.90;;;7.33;;
41887;SDS011;63122;52.424;13.458;2024-02-14T04:10:40;18.60;;;7.67;;
41887;SDS011;63122;52.424;13.458;2024-02-14T04:12:36;11.03;;;7.03;;
41887;SDS011;63122;52.424;13.458;2024-02-14T04:14:31;11.13;;;6.90;;
41887;SDS011;63122;52.424;13.458;2024-02-14T04:16:24;10.63;;;7.17;;
41887;SDS011;63122;52.424;13.458;2024-02-14T04:18:19;12.37;;;7.70;;
41887;SDS011;63122;52.424;13.458;2024-02-14T04:20:15;13.80;;;6.87;;
41887;SDS011;63122;52.424;13.458;2024-02-14T04:22:07;13.47;;;7.60;;
41887;SDS011;63122;52.424;13.458;2024-02-14T04:24:03;13.23;;;7.20;;
41887;SDS011;63122;52.424;13.458;2024-02-14T04:26:20;12.60;;;7.40;;
41887;SDS011;63122;52.424;13.458;2024-02-14T04:28:57;11.57;;;6.60;;
41887;SDS011;63122;52.424;13.458;2024-02-14T04:34:03;9.97;;;6.53;;
41887;SDS011;63122;52.424;13.458;2024-02-14T04:36:01;13.67;;;6.63;;
41887;SDS011;63122;52.424;13.458;2024-02-14T04:37:58;14.60;;;7.17;;
41887;SDS011;63122;52.424;13.458;2024-02-14T04:39:54;12.03;;;7.47;;
41887;SDS011;63122;52.424;13.458;2024-02-14T04:41:49;10.80;;;6.87;;
41887;SDS011;63122;52.424;13.458;2024-02-14T04:43:54;15.90;;;7.07;;
41887;SDS011;63122;52.424;13.458;2024-02-14T04:45:49;16.27;;;7.50;;
41887;SDS011;63122;52.424;13.458;2024-02-14T04:47:43;13.67;;;7.07;;
41887;SDS011;63122;52.424;13.458;2024-02-14T04:49:41;15.37;;;7.70;;
41887;SDS011;63122;52.424;13.458;2024-02-14T04:51:38;9.57;;;6.67;;
41887;SDS011;63122;52.424;13.458;2024-02-14T04:53:31;11.93;;;6.60;;
41887;SDS011;63122;52.424;13.458;2024-02-14T04:55:28;11.90;;;6.67;;
41887;SDS011;63122;52.424;13.458;2024-02-14T04:57:23;14.77;;;6.37;;
41887;SDS011;63122;52.424;13.458;2024-02-14T04:59:19;13.40;;;6.80;;
41887;SDS011;63122;52.424;13.458;2024-02-14T05:01:14;13.63;;;6.63;;
41887;SDS011;63122;52.424;13.458;2024-02-14T05:03:25;11.77;;;6.50;;
41887;SDS011;63122;52.424;13.458;2024-02-14T05:05:23;11.37;;;6.80;;
41887;SDS011;63122;52.424;13.458;2024-02-14T05:07:16;9.20;;;6.07;;
41887;SDS011;63122;52.424;13.458;2024-02-14T05:09:11;10.07;;;6.00;;
41887;SDS011;63122;52.424;13.458;2024-02-14T05:11:04;11.10;;;6.33;;
41887;SDS011;63122;52.424;13.458;2024-02-14T05:12:59;15.60;;;6.50;;
41887;SDS011;63122;52.424;13.458;2024-02-14T05:14:53;10.57;;;6.40;;
41887;SDS011;63122;52.424;13.458;2024-02-14T05:16:49;12.07;;;6.67;;
41887;SDS011;63122;52.424;13.458;2024-02-14T05:18:42;9.80;;;6.13;;
41887;SDS011;63122;52.424;13.458;2024-02-14T05:20:40;15.70;;;8.17;;
41887;SDS011;63122;52.424;13.458;2024-02-14T05:22:35;13.97;;;7.50;;
41887;SDS011;63122;52.424;13.458;2024-02-14T05:24:28;9.70;;;6.03;;
41887;SDS011;63122;52.424;13.458;2024-02-14T05:26:24;18.77;;;6.87;;
41887;SDS011;63122;52.424;13.458;2024-02-14T05:28:19;13.80;;;6.10;;
41887;SDS011;63122;52.424;13.458;2024-02-14T05:30:15;12.83;;;7.20;;
41887;SDS011;63122;52.424;13.458;2024-02-14T05:32:08;11.03;;;6.27;;
41887;SDS011;63122;52.424;13.458;2024-02-14T05:34:04;12.20;;;7.17;;
41887;SDS011;63122;52.424;13.458;2024-02-14T05:36:03;12.17;;;7.20;;
41887;SDS011;63122;52.424;13.458;2024-02-14T05:37:59;12.43;;;7.47;;
41887;SDS011;63122;52.424;13.458;2024-02-14T05:39:53;11.53;;;6.23;;
41887;SDS011;63122;52.424;13.458;2024-02-14T05:41:48;13.43;;;7.17;;
41887;SDS011;63122;52.424;13.458;2024-02-14T05:43:42;8.50;;;5.70;;
41887;SDS011;63122;52.424;13.458;2024-02-14T05:45:44;10.43;;;6.20;;
41887;SDS011;63122;52.424;13.458;2024-02-14T05:47:39;9.33;;;6.10;;
41887;SDS011;63122;52.424;13.458;2024-02-14T05:49:35;9.87;;;5.43;;
41887;SDS011;63122;52.424;13.458;2024-02-14T05:51:31;9.93;;;6.17;;
41887;SDS011;63122;52.424;13.458;2024-02-14T05:53:26;12.30;;;5.70;;
41887;SDS011;63122;52.424;13.458;2024-02-14T05:55:22;10.63;;;5.90;;
41887;SDS011;63122;52.424;13.458;2024-02-14T05:57:15;9.40;;;6.00;;
41887;SDS011;63122;52.424;13.458;2024-02-14T05:59:10;11.40;;;5.93;;
41887;SDS011;63122;52.424;13.458;2024-02-14T06:01:06;12.90;;;6.17;;
41887;SDS011;63122;52.424;13.458;2024-02-14T06:03:01;9.67;;;5.53;;
41887;SDS011;63122;52.424;13.458;2024-02-14T06:04:59;12.50;;;5.80;;
41887;SDS011;63122;52.424;13.458;2024-02-14T06:06:57;14.50;;;6.33;;
41887;SDS011;63122;52.424;13.458;2024-02-14T06:08:53;12.23;;;6.10;;
41887;SDS011;63122;52.424;13.458;2024-02-14T06:10:50;11.60;;;6.33;;
41887;SDS011;63122;52.424;13.458;2024-02-14T06:12:46;11.60;;;6.47;;
41887;SDS011;63122;52.424;13.458;2024-02-14T06:14:40;12.93;;;6.60;;
41887;SDS011;63122;52.424;13.458;2024-02-14T06:16:36;11.20;;;5.90;;
41887;SDS011;63122;52.424;13.458;2024-02-14T06:18:29;11.93;;;6.10;;
41887;SDS011;63122;52.424;13.458;2024-02-14T06:20:25;9.50;;;5.43;;
41887;SDS011;63122;52.424;13.458;2024-02-14T06:22:23;10.70;;;5.83;;
41887;SDS011;63122;52.424;13.458;2024-02-14T06:24:17;10.67;;;5.70;;
41887;SDS011;63122;52.424;13.458;2024-02-14T06:26:13;11.57;;;5.60;;
41887;SDS011;63122;52.424;13.458;2024-02-14T06:28:07;8.00;;;5.10;;
41887;SDS011;63122;52.424;13.458;2024-02-14T06:30:02;11.97;;;5.97;;
41887;SDS011;63122;52.424;13.458;2024-02-14T06:31:58;13.27;;;5.97;;
41887;SDS011;63122;52.424;13.458;2024-02-14T06:33:54;8.83;;;5.10;;
41887;SDS011;63122;52.424;13.458;2024-02-14T06:35:50;10.73;;;5.40;;
41887;SDS011;63122;52.424;13.458;2024-02-14T06:37:45;19.00;;;6.33;;
41887;SDS011;63122;52.424;13.458;2024-02-14T06:39:54;10.67;;;5.57;;
41887;SDS011;63122;52.424;13.458;2024-02-14T06:41:49;9.77;;;5.80;;
41887;SDS011;63122;52.424;13.458;2024-02-14T06:43:45;11.37;;;6.30;;
41887;SDS011;63122;52.424;13.458;2024-02-14T06:45:40;9.90;;;5.90;;
41887;SDS011;63122;52.424;13.458;2024-02-14T06:47:36;13.23;;;5.83;;
41887;SDS011;63122;52.424;13.458;2024-02-14T06:49:31;8.97;;;5.87;;
41887;SDS011;63122;52.424;13.458;2024-02-14T06:51:26;11.10;;;6.10;;
41887;SDS011;63122;52.424;13.458;2024-02-14T06:53:22;11.47;;;5.93;;
41887;SDS011;63122;52.424;13.458;2024-02-14T06:55:17;7.70;;;5.30;;
41887;SDS011;63122;52.424;13.458;2024-02-14T06:57:10;13.63;;;6.33;;
41887;SDS011;63122;52.424;13.458;2024-02-14T06:59:06;10.07;;;5.87;;
41887;SDS011;63122;52.424;13.458;2024-02-14T07:01:01;12.23;;;5.70;;
41887;SDS011;63122;52.424;13.458;2024-02-14T07:02:55;10.07;;;5.37;;
41887;SDS011;63122;52.424;13.458;2024-02-14T07:04:51;13.70;;;5.67;;
41887;SDS011;63122;52.424;13.458;2024-02-14T07:06:46;9.20;;;5.60;;
41887;SDS011;63122;52.424;13.458;2024-02-14T07:08:44;8.47;;;5.23;;
41887;SDS011;63122;52.424;13.458;2024-02-14T07:10:37;11.53;;;5.43;;
41887;SDS011;63122;52.424;13.458;2024-02-14T07:12:32;10.43;;;5.20;;
41887;SDS011;63122;52.424;13.458;2024-02-14T07:14:28;9.63;;;5.60;;
41887;SDS011;63122;52.424;13.458;2024-02-14T07:16:23;9.93;;;4.70;;
41887;SDS011;63122;52.424;13.458;2024-02-14T07:18:19;18.03;;;5.50;;
41887;SDS011;63122;52.424;13.458;2024-02-14T07:20:15;9.33;;;4.83;;
41887;SDS011;63122;52.424;13.458;2024-02-14T07:22:11;7.87;;;4.40;;
41887;SDS011;63122;52.424;13.458;2024-02-14T07:24:10;8.57;;;4.60;;
41887;SDS011;63122;52.424;13.458;2024-02-14T07:26:05;9.70;;;5.03;;
41887;SDS011;63122;52.424;13.458;2024-02-14T07:28:01;8.23;;;4.77;;
41887;SDS011;63122;52.424;13.458;2024-02-14T07:29:54;12.17;;;5.60;;
41887;SDS011;63122;52.424;13.458;2024-02-14T07:31:50;9.17;;;5.13;;
41887;SDS011;63122;52.424;13.458;2024-02-14T07:33:45;11.47;;;5.40;;
41887;SDS011;63122;52.424;13.458;2024-02-14T07:35:41;6.93;;;4.63;;
41887;SDS011;63122;52.424;13.458;2024-02-14T07:37:39;10.30;;;5.07;;
41887;SDS011;63122;52.424;13.458;2024-02-14T07:39:37;11.17;;;4.60;;
41887;SDS011;63122;52.424;13.458;2024-02-14T07:41:33;7.47;;;4.80;;
41887;SDS011;63122;52.424;13.458;2024-02-14T07:43:28;8.20;;;4.70;;
41887;SDS011;63122;52.424;13.458;2024-02-14T07:45:21;9.90;;;5.00;;
41887;SDS011;63122;52.424;13.458;2024-02-14T07:47:17;13.83;;;4.77;;
41887;SDS011;63122;52.424;13.458;2024-02-14T07:49:13;7.53;;;4.57;;
41887;SDS011;63122;52.424;13.458;2024-02-14T07:51:09;7.60;;;4.30;;
41887;SDS011;63122;52.424;13.458;2024-02-14T07:53:05;10.23;;;4.83;;
41887;SDS011;63122;52.424;13.458;2024-02-14T07:55:04;10.60;;;5.00;;
41887;SDS011;63122;52.424;13.458;2024-02-14T07:57:03;11.43;;;4.77;;
41887;SDS011;63122;52.424;13.458;2024-02-14T07:58:58;9.43;;;4.73;;
41887;SDS011;63122;52.424;13.458;2024-02-14T08:00:55;7.03;;;4.40;;
41887;SDS011;63122;52.424;13.458;2024-02-14T08:02:47;10.63;;;5.07;;
41887;SDS011;63122;52.424;13.458;2024-02-14T08:04:43;11.40;;;4.83;;
41887;SDS011;63122;52.424;13.458;2024-02-14T08:06:42;12.73;;;4.80;;
41887;SDS011;63122;52.424;13.458;2024-02-14T08:08:42;10.53;;;4.50;;
41887;SDS011;63122;52.424;13.458;2024-02-14T08:10:40;9.27;;;4.40;;
41887;SDS011;63122;52.424;13.458;2024-02-14T08:12:49;7.53;;;4.53;;
41887;SDS011;63122;52.424;13.458;2024-02-14T08:17:00;6.00;;;4.03;;
41887;SDS011;63122;52.424;13.458;2024-02-14T08:18:54;12.27;;;4.43;;
41887;SDS011;63122;52.424;13.458;2024-02-14T08:20:54;7.13;;;4.90;;
41887;SDS011;63122;52.424;13.458;2024-02-14T09:21:32;6.70;;;3.17;;
41887;SDS011;63122;52.424;13.458;2024-02-14T09:23:33;4.43;;;2.73;;
41887;SDS011;63122;52.424;13.458;2024-02-14T09:25:34;9.97;;;3.00;;
41887;SDS011;63122;52.424;13.458;2024-02-14T09:27:30;5.60;;;3.00;;
41887;SDS011;63122;52.424;13.458;2024-02-14T09:29:32;7.80;;;2.83;;
41887;SDS011;63122;52.424;13.458;2024-02-14T09:31:35;7.63;;;2.90;;
41887;SDS011;63122;52.424;13.458;2024-02-14T09:33:34;5.47;;;3.10;;
41887;SDS011;63122;52.424;13.458;2024-02-14T09:35:34;9.07;;;2.90;;
41887;SDS011;63122;52.424;13.458;2024-02-14T09:37:37;6.53;;;2.77;;
41887;SDS011;63122;52.424;13.458;2024-02-14T09:39:33;5.87;;;2.50;;
41887;SDS011;63122;52.424;13.458;2024-02-14T09:41:36;7.50;;;2.70;;
41887;SDS011;63122;52.424;13.458;2024-02-14T09:43:36;4.07;;;2.10;;
41887;SDS011;63122;52.424;13.458;2024-02-14T09:45:31;6.10;;;2.30;;
41887;SDS011;63122;52.424;13.458;2024-02-14T09:53:40;4.97;;;1.83;;
41887;SDS011;63122;52.424;13.458;2024-02-14T09:56:21;4.40;;;2.50;;
41887;SDS011;63122;52.424;13.458;2024-02-14T10:02:26;4.33;;;2.50;;
41887;SDS011;63122;52.424;13.458;2024-02-14T10:05:08;9.47;;;2.97;;
41887;SDS011;63122;52.424;13.458;2024-02-14T10:07:26;10.97;;;2.77;;
41887;SDS011;63122;52.424;13.458;2024-02-14T10:10:05;7.63;;;2.87;;
41887;SDS011;63122;52.424;13.458;2024-02-14T10:15:27;7.63;;;1.90;;
41887;SDS011;63122;52.424;13.458;2024-02-14T10:18:11;5.20;;;2.70;;
41887;SDS011;63122;52.424;13.458;2024-02-14T10:20:16;4.80;;;2.80;;
41887;SDS011;63122;52.424;13.458;2024-02-14T10:22:15;6.47;;;3.10;;
41887;SDS011;63122;52.424;13.458;2024-02-14T10:24:17;3.30;;;1.80;;
41887;SDS011;63122;52.424;13.458;2024-02-14T10:26:15;5.37;;;3.03;;
41887;SDS011;63122;52.424;13.458;2024-02-14T10:28:11;5.90;;;2.47;;
41887;SDS011;63122;52.424;13.458;2024-02-14T10:30:06;4.80;;;3.17;;
41887;SDS011;63122;52.424;13.458;2024-02-14T10:32:03;5.17;;;2.97;;
41887;SDS011;63122;52.424;13.458;2024-02-14T10:33:58;9.73;;;3.10;;
41887;SDS011;63122;52.424;13.458;2024-02-14T10:35:58;5.90;;;2.77;;
41887;SDS011;63122;52.424;13.458;2024-02-14T10:37:54;6.23;;;2.97;;
41887;SDS011;63122;52.424;13.458;2024-02-14T10:39:53;6.43;;;2.80;;
41887;SDS011;63122;52.424;13.458;2024-02-14T10:41:53;6.97;;;2.77;;
41887;SDS011;63122;52.424;13.458;2024-02-14T10:43:49;8.10;;;3.80;;
41887;SDS011;63122;52.424;13.458;2024-02-14T10:45:45;7.33;;;3.07;;
41887;SDS011;63122;52.424;13.458;2024-02-14T10:47:40;6.97;;;3.10;;
41887;SDS011;63122;52.424;13.458;2024-02-14T10:49:41;6.37;;;3.20;;
41887;SDS011;63122;52.424;13.458;2024-02-14T10:51:41;6.87;;;3.03;;
41887;SDS011;63122;52.424;13.458;2024-02-14T10:53:40;4.17;;;1.73;;
41887;SDS011;63122;52.424;13.458;2024-02-14T10:55:39;10.60;;;2.77;;
41887;SDS011;63122;52.424;13.458;2024-02-14T10:57:38;7.13;;;3.40;;
41887;SDS011;63122;52.424;13.458;2024-02-14T10:59:32;9.13;;;3.53;;
41887;SDS011;63122;52.424;13.458;2024-02-14T11:01:29;8.27;;;3.00;;
41887;SDS011;63122;52.424;13.458;2024-02-14T11:03:27;7.27;;;3.97;;
41887;SDS011;63122;52.424;13.458;2024-02-14T11:05:23;8.77;;;3.90;;
41887;SDS011;63122;52.424;13.458;2024-02-14T11:07:19;8.07;;;3.20;;
41887;SDS011;63122;52.424;13.458;2024-02-14T11:09:18;3.23;;;1.80;;
41887;SDS011;63122;52.424;13.458;2024-02-14T11:11:15;4.20;;;2.83;;
41887;SDS011;63122;52.424;13.458;2024-02-14T11:13:14;5.70;;;2.60;;
41887;SDS011;63122;52.424;13.458;2024-02-14T11:15:15;5.73;;;2.63;;
41887;SDS011;63122;52.424;13.458;2024-02-14T11:17:12;6.10;;;2.57;;
41887;SDS011;63122;52.424;13.458;2024-02-14T11:19:06;13.40;;;2.43;;
41887;SDS011;63122;52.424;13.458;2024-02-14T11:21:15;3.37;;;1.70;;
41887;SDS011;63122;52.424;13.458;2024-02-14T11:23:20;7.10;;;2.10;;
41887;SDS011;63122;52.424;13.458;2024-02-14T11:25:22;6.63;;;2.00;;
41887;SDS011;63122;52.424;13.458;2024-02-14T11:27:20;6.37;;;2.73;;
41887;SDS011;63122;52.424;13.458;2024-02-14T11:29:31;6.23;;;3.07;;
41887;SDS011;63122;52.424;13.458;2024-02-14T11:31:31;4.23;;;2.17;;
41887;SDS011;63122;52.424;13.458;2024-02-14T11:33:30;7.77;;;2.80;;
41887;SDS011;63122;52.424;13.458;2024-02-14T11:35:27;6.50;;;2.77;;
41887;SDS011;63122;52.424;13.458;2024-02-14T11:37:27;6.17;;;2.80;;
41887;SDS011;63122;52.424;13.458;2024-02-14T11:39:25;3.00;;;1.73;;
41887;SDS011;63122;52.424;13.458;2024-02-14T11:41:20;7.77;;;3.43;;
41887;SDS011;63122;52.424;13.458;2024-02-14T11:43:21;5.23;;;2.63;;
41887;SDS011;63122;52.424;13.458;2024-02-14T11:45:20;5.40;;;2.83;;
41887;SDS011;63122;52.424;13.458;2024-02-14T11:47:19;7.40;;;3.17;;
41887;SDS011;63122;52.424;13.458;2024-02-14T11:49:22;7.70;;;2.97;;
41887;SDS011;63122;52.424;13.458;2024-02-14T11:51:22;5.23;;;2.60;;
41887;SDS011;63122;52.424;13.458;2024-02-14T11:53:17;10.73;;;3.17;;
41887;SDS011;63122;52.424;13.458;2024-02-14T11:55:27;7.57;;;2.77;;
41887;SDS011;63122;52.424;13.458;2024-02-14T11:57:25;6.60;;;2.50;;
41887;SDS011;63122;52.424;13.458;2024-02-14T11:59:22;6.87;;;1.87;;
41887;SDS011;63122;52.424;13.458;2024-02-14T12:01:21;6.90;;;3.33;;
41887;SDS011;63122;52.424;13.458;2024-02-14T12:03:21;7.53;;;3.00;;
41887;SDS011;63122;52.424;13.458;2024-02-14T12:05:16;7.17;;;2.63;;
41887;SDS011;63122;52.424;13.458;2024-02-14T12:07:13;13.00;;;3.50;;
41887;SDS011;63122;52.424;13.458;2024-02-14T12:09:09;4.33;;;2.50;;
41887;SDS011;63122;52.424;13.458;2024-02-14T12:11:05;8.50;;;2.77;;
41887;SDS011;63122;52.424;13.458;2024-02-14T12:12:58;3.37;;;1.77;;
41887;SDS011;63122;52.424;13.458;2024-02-14T12:15:01;9.93;;;3.70;;
41887;SDS011;63122;52.424;13.458;2024-02-14T12:16:59;9.40;;;3.63;;
41887;SDS011;63122;52.424;13.458;2024-02-14T12:19:03;8.97;;;3.07;;
41887;SDS011;63122;52.424;13.458;2024-02-14T12:21:05;7.57;;;2.47;;
41887;SDS011;63122;52.424;13.458;2024-02-14T12:23:02;6.63;;;3.13;;
41887;SDS011;63122;52.424;13.458;2024-02-14T12:24:58;6.47;;;3.23;;
41887;SDS011;63122;52.424;13.458;2024-02-14T12:26:54;11.20;;;3.70;;
41887;SDS011;63122;52.424;13.458;2024-02-14T12:28:51;12.70;;;3.87;;
41887;SDS011;63122;52.424;13.458;2024-02-14T12:30:47;7.77;;;3.77;;
41887;SDS011;63122;52.424;13.458;2024-02-14T12:33:00;7.70;;;2.60;;
41887;SDS011;63122;52.424;13.458;2024-02-14T12:35:01;8.90;;;3.47;;
41887;SDS011;63122;52.424;13.458;2024-02-14T12:36:56;9.30;;;3.30;;
41887;SDS011;63122;52.424;13.458;2024-02-14T12:38:49;6.20;;;2.83;;
41887;SDS011;63122;52.424;13.458;2024-02-14T12:40:45;4.97;;;3.50;;
41887;SDS011;63122;52.424;13.458;2024-02-14T12:43:08;3.40;;;1.70;;
41887;SDS011;63122;52.424;13.458;2024-02-14T12:45:04;5.00;;;3.07;;
41887;SDS011;63122;52.424;13.458;2024-02-14T12:46:59;7.00;;;3.90;;
41887;SDS011;63122;52.424;13.458;2024-02-14T12:48:57;12.40;;;4.93;;
41887;SDS011;63122;52.424;13.458;2024-02-14T12:50:53;6.10;;;3.40;;
41887;SDS011;63122;52.424;13.458;2024-02-14T12:52:50;7.50;;;4.17;;
41887;SDS011;63122;52.424;13.458;2024-02-14T12:54:45;10.63;;;4.60;;
41887;SDS011;63122;52.424;13.458;2024-02-14T12:56:40;6.50;;;2.87;;
41887;SDS011;63122;52.424;13.458;2024-02-14T12:58:36;5.97;;;3.90;;
41887;SDS011;63122;52.424;13.458;2024-02-14T13:00:32;9.17;;;3.80;;
41887;SDS011;63122;52.424;13.458;2024-02-14T13:02:25;7.10;;;4.10;;
41887;SDS011;63122;52.424;13.458;2024-02-14T13:04:23;9.93;;;4.40;;
41887;SDS011;63122;52.424;13.458;2024-02-14T13:06:16;10.90;;;3.60;;
41887;SDS011;63122;52.424;13.458;2024-02-14T13:08:12;10.07;;;4.90;;
41887;SDS011;63122;52.424;13.458;2024-02-14T13:10:06;10.43;;;4.90;;
41887;SDS011;63122;52.424;13.458;2024-02-14T13:12:03;7.13;;;4.27;;
41887;SDS011;63122;52.424;13.458;2024-02-14T13:14:02;5.10;;;3.47;;
41887;SDS011;63122;52.424;13.458;2024-02-14T13:15:57;9.37;;;4.63;;
41887;SDS011;63122;52.424;13.458;2024-02-14T13:17:52;5.30;;;3.20;;
41887;SDS011;63122;52.424;13.458;2024-02-14T13:19:52;10.67;;;4.20;;
41887;SDS011;63122;52.424;13.458;2024-02-14T13:21:48;10.77;;;4.10;;
41887;SDS011;63122;52.424;13.458;2024-02-14T13:23:44;8.77;;;3.80;;
41887;SDS011;63122;52.424;13.458;2024-02-14T13:25:37;10.27;;;4.23;;
41887;SDS011;63122;52.424;13.458;2024-02-14T13:27:32;6.60;;;3.30;;
41887;SDS011;63122;52.424;13.458;2024-02-14T13:29:25;10.83;;;4.07;;
41887;SDS011;63122;52.424;13.458;2024-02-14T13:31:21;11.03;;;4.47;;
41887;SDS011;63122;52.424;13.458;2024-02-14T13:33:16;5.47;;;4.03;;
41887;SDS011;63122;52.424;13.458;2024-02-14T13:35:14;9.13;;;4.53;;
41887;SDS011;63122;52.424;13.458;2024-02-14T13:37:10;10.53;;;4.20;;
41887;SDS011;63122;52.424;13.458;2024-02-14T13:39:07;6.80;;;4.03;;
41887;SDS011;63122;52.424;13.458;2024-02-14T13:41:06;10.53;;;4.17;;
41887;SDS011;63122;52.424;13.458;2024-02-14T13:42:58;10.27;;;4.50;;
41887;SDS011;63122;52.424;13.458;2024-02-14T13:44:55;9.57;;;3.87;;
41887;SDS011;63122;52.424;13.458;2024-02-14T13:46:50;11.13;;;4.70;;
41887;SDS011;63122;52.424;13.458;2024-02-14T13:48:46;10.03;;;5.00;;
41887;SDS011;63122;52.424;13.458;2024-02-14T13:50:43;8.37;;;4.77;;
41887;SDS011;63122;52.424;13.458;2024-02-14T13:52:43;8.77;;;4.00;;
41887;SDS011;63122;52.424;13.458;2024-02-14T13:54:38;6.37;;;2.27;;
41887;SDS011;63122;52.424;13.458;2024-02-14T13:56:34;11.47;;;4.93;;
41887;SDS011;63122;52.424;13.458;2024-02-14T13:58:27;5.07;;;2.93;;
41887;SDS011;63122;52.424;13.458;2024-02-14T14:00:22;9.97;;;3.87;;
41887;SDS011;63122;52.424;13.458;2024-02-14T14:02:15;3.83;;;2.27;;
41887;SDS011;63122;52.424;13.458;2024-02-14T14:04:11;6.57;;;4.20;;
41887;SDS011;63122;52.424;13.458;2024-02-14T14:06:08;8.67;;;4.50;;
41887;SDS011;63122;52.424;13.458;2024-02-14T14:08:04;10.30;;;4.70;;
41887;SDS011;63122;52.424;13.458;2024-02-14T14:10:00;8.57;;;3.33;;
41887;SDS011;63122;52.424;13.458;2024-02-14T14:11:55;8.97;;;4.57;;
41887;SDS011;63122;52.424;13.458;2024-02-14T14:13:50;9.97;;;4.50;;
41887;SDS011;63122;52.424;13.458;2024-02-14T14:15:45;6.90;;;4.20;;
41887;SDS011;63122;52.424;13.458;2024-02-14T14:46:33;8.57;;;4.47;;
41887;SDS011;63122;52.424;13.458;2024-02-14T14:48:58;12.40;;;4.40;;
41887;SDS011;63122;52.424;13.458;2024-02-14T14:51:05;7.90;;;3.77;;
41887;SDS011;63122;52.424;13.458;2024-02-14T14:53:05;6.80;;;4.23;;
41887;SDS011;63122;52.424;13.458;2024-02-14T15:21:29;8.93;;;3.60;;
41887;SDS011;63122;52.424;13.458;2024-02-14T15:23:55;5.53;;;3.50;;
41887;SDS011;63122;52.424;13.458;2024-02-14T15:28:35;7.13;;;3.70;;
41887;SDS011;63122;52.424;13.458;2024-02-14T15:31:11;6.40;;;4.10;;
41887;SDS011;63122;52.424;13.458;2024-02-14T15:34:04;13.17;;;4.40;;
41887;SDS011;63122;52.424;13.458;2024-02-14T15:36:22;6.57;;;3.57;;
41887;SDS011;63122;52.424;13.458;2024-02-14T15:45:30;10.03;;;4.07;;
41887;SDS011;63122;52.424;13.458;2024-02-14T15:47:41;11.20;;;4.27;;
41887;SDS011;63122;52.424;13.458;2024-02-14T15:53:50;8.40;;;3.67;;
41887;SDS011;63122;52.424;13.458;2024-02-14T15:57:06;7.23;;;3.27;;
41887;SDS011;63122;52.424;13.458;2024-02-14T16:13:17;11.93;;;4.87;;
41887;SDS011;63122;52.424;13.458;2024-02-14T16:27:45;10.17;;;4.87;;
41887;SDS011;63122;52.424;13.458;2024-02-14T16:31:02;7.57;;;4.30;;
41887;SDS011;63122;52.424;13.458;2024-02-14T16:37:18;8.50;;;4.83;;
41887;SDS011;63122;52.424;13.458;2024-02-14T16:44:37;7.73;;;4.40;;
41887;SDS011;63122;52.424;13.458;2024-02-14T17:04:15;12.90;;;4.37;;